Time;durP1;ratioP1;P1;durP2;ratioP2;P2;SDS_P1;SDS_P2;PMS_P1;PMS_P2;Temp;Humidity;BMP_temperature;BMP_pressure;BME280_temperature;BME280_humidity;BME280_pressure;Samples;Min_cycle;Max_cycle;Signal;HPM_P1;HPM_P2
2023/07/12 00:00:34;;;;;;;2.88;2.17;;;19.20;99.90;;;;;;5074465;28;20501;-57
2023/07/12 00:03:00;;;;;;;4.70;2.60;;;19.20;99.90;;;;;;5074445;28;20037;-56
2023/07/12 00:05:28;;;;;;;5.13;2.78;;;19.20;99.90;;;;;;5074731;28;20505;-57
2023/07/12 00:07:54;;;;;;;4.70;2.35;;;19.30;99.90;;;;;;5074302;28;20033;-57
2023/07/12 00:10:23;;;;;;;3.58;2.60;;;19.20;99.90;;;;;;5074545;28;20041;-57
2023/07/12 00:12:49;;;;;;;4.85;2.70;;;19.10;99.90;;;;;;5074564;28;20040;-57
2023/07/12 00:15:19;;;;;;;5.93;2.72;;;19.20;99.90;;;;;;5072790;28;20051;-57
2023/07/12 00:17:45;;;;;;;2.42;1.98;;;19.20;99.90;;;;;;5074364;28;20032;-57
2023/07/12 00:20:20;;;;;;;2.95;2.30;;;19.10;99.90;;;;;;5060121;28;20559;-57
2023/07/12 00:22:46;;;;;;;5.32;2.40;;;19.20;99.90;;;;;;5074246;28;20044;-57
2023/07/12 00:25:14;;;;;;;4.85;2.67;;;19.00;99.90;;;;;;5074119;28;20041;-57
2023/07/12 00:27:39;;;;;;;4.80;1.95;;;19.10;99.90;;;;;;5074366;28;20028;-57
2023/07/12 00:30:34;;;;;;;6.22;2.20;;;19.00;99.90;;;;;;5073996;28;20529;-57
2023/07/12 00:33:03;;;;;;;5.65;2.30;;;19.10;99.90;;;;;;5002037;28;20245;-57
2023/07/12 00:35:31;;;;;;;3.67;2.22;;;19.00;99.90;;;;;;5012006;28;20441;-57
2023/07/12 00:38:00;;;;;;;5.13;2.45;;;19.00;99.90;;;;;;5011894;28;20108;-57
2023/07/12 00:40:47;;;;;;;3.15;2.10;;;18.90;99.90;;;;;;5011989;28;20034;-57
2023/07/12 00:43:29;;;;;;;4.80;2.20;;;19.00;99.90;;;;;;5011547;28;20085;-57
2023/07/12 00:45:58;;;;;;;8.13;2.70;;;19.00;99.90;;;;;;5011838;28;20192;-57
2023/07/12 00:48:24;;;;;;;3.42;1.90;;;19.00;99.90;;;;;;5011613;28;20065;-57
2023/07/12 00:50:49;;;;;;;4.47;2.50;;;18.90;99.90;;;;;;5011656;28;20042;-57
2023/07/12 00:53:19;;;;;;;4.53;2.53;;;19.00;99.90;;;;;;5011550;28;20041;-57
2023/07/12 00:55:59;;;;;;;2.75;1.80;;;19.00;99.90;;;;;;5011588;28;20448;-57
2023/07/12 00:58:29;;;;;;;4.25;2.67;;;18.90;99.90;;;;;;5010824;28;20045;-57
2023/07/12 01:00:58;;;;;;;6.75;2.45;;;19.00;99.90;;;;;;5011472;28;20131;-57
2023/07/12 01:03:28;;;;;;;5.97;2.40;;;18.90;99.90;;;;;;5011541;28;20045;-57
2023/07/12 01:05:54;;;;;;;3.47;2.17;;;18.90;99.90;;;;;;5011348;28;20045;-57
2023/07/12 01:08:20;;;;;;;4.88;2.50;;;18.90;99.90;;;;;;5005659;28;20045;-57
2023/07/12 01:10:46;;;;;;;6.35;2.17;;;18.90;99.90;;;;;;5070439;28;20029;-57
2023/07/12 01:13:12;;;;;;;3.67;2.22;;;18.90;99.90;;;;;;5072967;28;20062;-57
2023/07/12 01:15:37;;;;;;;5.13;2.40;;;18.80;99.90;;;;;;5073997;28;20028;-57
2023/07/12 01:18:05;;;;;;;4.93;2.78;;;18.90;99.90;;;;;;5077124;28;20391;-57
2023/07/12 01:20:37;;;;;;;5.65;2.53;;;18.90;99.90;;;;;;5073048;28;20083;-57
2023/07/12 01:23:03;;;;;;;7.68;2.97;;;18.90;99.90;;;;;;5072965;28;20078;-58
2023/07/12 01:25:34;;;;;;;6.15;2.63;;;18.80;99.90;;;;;;5066350;28;20025;-57
2023/07/12 01:28:00;;;;;;;7.40;3.30;;;18.70;99.90;;;;;;5066593;28;20037;-57
2023/07/12 01:30:25;;;;;;;6.68;3.55;;;18.70;99.90;;;;;;5072839;28;20123;-57
2023/07/12 01:32:52;;;;;;;6.28;3.20;;;18.70;99.90;;;;;;5073161;28;20746;-57
2023/07/12 01:35:18;;;;;;;6.10;2.90;;;18.70;99.90;;;;;;5072836;28;20040;-57
2023/07/12 01:37:44;;;;;;;4.53;2.63;;;18.70;99.90;;;;;;5072796;28;20441;-57
2023/07/12 01:40:10;;;;;;;9.45;3.72;;;18.70;99.90;;;;;;5071255;28;20131;-57
2023/07/12 01:42:36;;;;;;;8.27;3.35;;;18.70;99.90;;;;;;5065418;28;20044;-57
2023/07/12 01:45:01;;;;;;;8.32;2.95;;;18.70;99.90;;;;;;5064141;28;20045;-57
2023/07/12 01:47:27;;;;;;;9.18;3.45;;;18.60;99.90;;;;;;5072043;28;20151;-57
2023/07/12 01:49:52;;;;;;;6.03;3.42;;;18.60;99.90;;;;;;5072080;28;20471;-57
2023/07/12 01:52:18;;;;;;;7.43;3.20;;;18.60;99.90;;;;;;5072457;28;20036;-57
2023/07/12 01:54:44;;;;;;;9.52;3.45;;;18.50;99.90;;;;;;5072319;28;20089;-57
2023/07/12 01:57:09;;;;;;;6.88;3.35;;;18.50;99.90;;;;;;5072279;28;20078;-57
2023/07/12 01:59:35;;;;;;;8.25;3.45;;;18.40;99.90;;;;;;5072562;28;20041;-57
2023/07/12 02:02:00;;;;;;;10.38;4.07;;;18.40;99.90;;;;;;5072466;28;20402;-57
2023/07/12 02:04:26;;;;;;;7.50;3.65;;;18.40;99.90;;;;;;5072325;28;20028;-57
2023/07/12 02:06:52;;;;;;;10.45;3.58;;;18.30;99.90;;;;;;5072455;28;20111;-57
2023/07/12 02:09:18;;;;;;;7.03;3.67;;;18.30;99.90;;;;;;5072115;28;20039;-57
2023/07/12 02:11:44;;;;;;;6.65;4.10;;;18.30;99.90;;;;;;5072582;28;20166;-57
2023/07/12 02:14:09;;;;;;;8.13;4.18;;;18.30;99.90;;;;;;5072082;28;20147;-57
2023/07/12 02:16:35;;;;;;;9.90;3.47;;;18.20;99.90;;;;;;5066275;28;20040;-58
2023/07/12 02:19:00;;;;;;;9.15;4.70;;;18.20;99.90;;;;;;5064042;28;20528;-57
2023/07/12 02:21:26;;;;;;;6.97;4.03;;;18.20;99.90;;;;;;5071673;28;20032;-57
2023/07/12 02:23:53;;;;;;;9.00;4.50;;;18.20;99.90;;;;;;5072034;28;20032;-57
2023/07/12 02:26:18;;;;;;;9.27;4.57;;;18.20;99.90;;;;;;5071997;28;20105;-57
2023/07/12 02:28:44;;;;;;;10.82;4.43;;;18.10;99.90;;;;;;5072143;28;20068;-57
2023/07/12 02:31:24;;;;;;;9.50;4.60;;;18.10;99.90;;;;;;5071970;28;20348;-57
2023/07/12 02:33:51;;;;;;;8.85;4.38;;;18.10;99.90;;;;;;5059984;28;20162;-57
2023/07/12 02:36:18;;;;;;;7.45;3.88;;;18.10;99.90;;;;;;5070862;28;20081;-57
2023/07/12 02:38:43;;;;;;;9.35;4.38;;;18.10;99.90;;;;;;5071867;28;20033;-57
2023/07/12 02:41:09;;;;;;;14.35;4.63;;;18.00;99.90;;;;;;5071717;28;20040;-57
2023/07/12 02:43:35;;;;;;;13.07;4.88;;;18.00;99.90;;;;;;5070134;28;20067;-57
2023/07/12 02:46:01;;;;;;;15.88;4.90;;;18.00;99.90;;;;;;5072151;28;20043;-57
2023/07/12 02:48:26;;;;;;;10.15;4.55;;;18.10;99.90;;;;;;5070268;28;20048;-57
2023/07/12 02:50:52;;;;;;;11.30;4.18;;;18.00;99.90;;;;;;5071683;28;20045;-57
2023/07/12 02:53:19;;;;;;;9.57;5.25;;;18.00;99.90;;;;;;5071755;28;20081;-57
2023/07/12 02:55:50;;;;;;;15.32;5.68;;;18.00;99.90;;;;;;5071912;28;20064;-57
2023/07/12 02:58:18;;;;;;;11.75;4.97;;;18.00;99.90;;;;;;5070724;28;20796;-57
2023/07/12 03:00:43;;;;;;;12.52;4.72;;;17.90;99.90;;;;;;5071872;28;20909;-58
2023/07/12 03:03:09;;;;;;;11.65;5.03;;;17.90;99.90;;;;;;5071705;28;20163;-57
2023/07/12 03:05:36;;;;;;;14.30;4.65;;;17.80;99.90;;;;;;5071625;28;20107;-57
2023/07/12 03:08:02;;;;;;;15.80;4.88;;;17.80;99.90;;;;;;5070139;28;20036;-57
2023/07/12 03:10:28;;;;;;;12.80;5.25;;;17.80;99.90;;;;;;5071461;28;20044;-57
2023/07/12 03:12:54;;;;;;;13.82;5.00;;;17.90;99.90;;;;;;5071734;28;20040;-57
2023/07/12 03:15:20;;;;;;;13.40;4.65;;;17.90;99.90;;;;;;5070453;28;20098;-57
2023/07/12 03:17:46;;;;;;;14.02;5.05;;;17.80;99.90;;;;;;5057137;28;20041;-57
2023/07/12 03:20:12;;;;;;;14.63;5.43;;;17.90;99.90;;;;;;5072633;28;20115;-57
2023/07/12 03:22:37;;;;;;;15.32;5.75;;;17.80;99.90;;;;;;5075335;28;20098;-57
2023/07/12 03:25:03;;;;;;;18.00;5.53;;;17.80;99.90;;;;;;5075463;28;20032;-57
2023/07/12 03:27:29;;;;;;;14.05;5.18;;;17.80;99.90;;;;;;5075400;28;20485;-56
2023/07/12 03:29:55;;;;;;;17.40;5.05;;;17.80;99.90;;;;;;5075044;28;20036;-57
2023/07/12 03:32:20;;;;;;;14.35;5.20;;;17.70;99.90;;;;;;5075107;28;20040;-57
2023/07/12 03:34:46;;;;;;;14.43;5.63;;;17.80;99.90;;;;;;5074731;28;20040;-57
2023/07/12 03:37:12;;;;;;;13.27;4.97;;;17.80;99.90;;;;;;5075004;28;20056;-56
2023/07/12 03:39:38;;;;;;;17.60;5.60;;;17.80;99.90;;;;;;5074845;28;20063;-57
2023/07/12 03:42:04;;;;;;;18.75;5.25;;;17.70;99.90;;;;;;5074894;28;20479;-57
2023/07/12 03:44:30;;;;;;;16.13;4.90;;;17.70;99.90;;;;;;5075015;28;20040;-57
2023/07/12 03:46:56;;;;;;;13.00;5.35;;;17.60;99.90;;;;;;5074550;28;20093;-57
2023/07/12 03:49:21;;;;;;;19.85;5.30;;;17.60;99.90;;;;;;5075212;28;20055;-57
2023/07/12 03:51:47;;;;;;;16.92;4.93;;;17.60;99.90;;;;;;5074816;28;20040;-57
2023/07/12 03:54:14;;;;;;;14.20;5.32;;;17.60;99.90;;;;;;5074938;28;20093;-57
2023/07/12 03:56:40;;;;;;;15.52;5.43;;;17.50;99.90;;;;;;5074992;28;20041;-56
2023/07/12 03:59:08;;;;;;;13.68;4.95;;;17.60;99.90;;;;;;5074762;28;20048;-57
2023/07/12 04:01:34;;;;;;;15.50;4.63;;;17.60;99.90;;;;;;5074585;28;20067;-56
2023/07/12 04:04:00;;;;;;;10.38;4.60;;;17.60;99.90;;;;;;5074327;28;20445;-58
2023/07/12 04:06:26;;;;;;;10.07;4.57;;;17.50;99.90;;;;;;5074594;28;20086;-57
2023/07/12 04:08:51;;;;;;;15.95;5.25;;;17.50;99.90;;;;;;5074437;28;20387;-57
2023/07/12 04:11:26;;;;;;;21.58;5.50;;;17.60;99.90;;;;;;5074471;28;20037;-57
2023/07/12 04:13:52;;;;;;;20.50;6.00;;;17.50;99.90;;;;;;5074357;28;20083;-57
2023/07/12 04:16:18;;;;;;;14.18;5.25;;;17.50;99.90;;;;;;5071104;28;20072;-57
2023/07/12 04:18:44;;;;;;;14.60;5.13;;;17.50;99.90;;;;;;5063744;28;20387;-57
2023/07/12 04:21:09;;;;;;;13.73;5.28;;;17.50;99.90;;;;;;5073969;28;20037;-57
2023/07/12 04:23:35;;;;;;;15.77;5.22;;;17.50;99.90;;;;;;5074137;28;20028;-57
2023/07/12 04:26:03;;;;;;;12.85;5.07;;;17.60;99.90;;;;;;5074259;28;20047;-57
2023/07/12 04:28:30;;;;;;;12.90;4.90;;;17.40;99.90;;;;;;5074096;28;20036;-57
2023/07/12 04:30:56;;;;;;;12.98;5.20;;;17.50;99.90;;;;;;5073533;28;20056;-57
2023/07/12 04:33:23;;;;;;;20.08;5.70;;;17.60;99.90;;;;;;5073009;28;20093;-56
2023/07/12 04:35:48;;;;;;;16.48;5.45;;;17.60;99.90;;;;;;5074175;28;20029;-57
2023/07/12 04:38:14;;;;;;;15.48;5.35;;;17.60;99.90;;;;;;5074021;28;20032;-57
2023/07/12 04:40:39;;;;;;;13.15;4.90;;;17.50;99.90;;;;;;5073799;28;20100;-57
2023/07/12 04:43:05;;;;;;;14.82;4.78;;;17.60;99.90;;;;;;5073757;28;20496;-57
2023/07/12 04:45:31;;;;;;;16.30;5.07;;;17.60;99.90;;;;;;5074141;28;20036;-57
2023/07/12 04:47:56;;;;;;;11.80;4.63;;;17.50;99.90;;;;;;5073518;28;20064;-56
2023/07/12 04:50:22;;;;;;;14.15;4.78;;;17.50;99.90;;;;;;5073732;28;20390;-57
2023/07/12 04:52:47;;;;;;;17.60;4.90;;;17.50;99.90;;;;;;5073289;28;20078;-56
2023/07/12 04:55:24;;;;;;;15.35;5.20;;;17.50;99.90;;;;;;5073522;28;20453;-57
2023/07/12 04:57:50;;;;;;;17.77;5.43;;;17.60;99.90;;;;;;5073546;28;20044;-57
2023/07/12 05:00:17;;;;;;;18.77;5.22;;;17.60;99.90;;;;;;5073514;28;20113;-57
2023/07/12 05:02:42;;;;;;;14.52;5.35;;;17.50;99.90;;;;;;5073050;28;20044;-57
2023/07/12 05:05:08;;;;;;;19.35;5.65;;;17.50;99.90;;;;;;5073622;28;20032;-57
2023/07/12 05:07:34;;;;;;;16.23;6.13;;;17.60;99.90;;;;;;5073381;28;20475;-58
2023/07/12 05:10:00;;;;;;;11.50;5.47;;;17.60;99.90;;;;;;5073572;28;20115;-58
2023/07/12 05:12:26;;;;;;;16.90;5.30;;;17.60;99.90;;;;;;5073526;28;20574;-57
2023/07/12 05:14:51;;;;;;;17.15;6.22;;;17.60;99.90;;;;;;5073067;28;20032;-56
2023/07/12 05:17:17;;;;;;;15.93;5.20;;;17.80;99.90;;;;;;5060379;28;20045;-57
2023/07/12 05:19:43;;;;;;;13.88;5.85;;;17.70;99.90;;;;;;5070911;28;20121;-57
2023/07/12 05:22:08;;;;;;;14.68;5.80;;;17.90;99.90;;;;;;5072945;28;20044;-57
2023/07/12 05:24:34;;;;;;;14.70;5.40;;;17.90;99.90;;;;;;5072958;28;20036;-57
2023/07/12 05:26:59;;;;;;;18.30;5.22;;;17.80;99.90;;;;;;5073199;28;20043;-57
2023/07/12 05:29:25;;;;;;;17.90;6.28;;;17.80;99.90;;;;;;5073221;28;20471;-57
2023/07/12 05:31:51;;;;;;;14.70;5.28;;;17.90;99.90;;;;;;5072615;28;20123;-57
2023/07/12 05:34:16;;;;;;;16.10;5.25;;;17.90;99.90;;;;;;5073057;28;20082;-57
2023/07/12 05:36:42;;;;;;;14.40;5.22;;;17.90;99.90;;;;;;5071346;28;20064;-57
2023/07/12 05:39:08;;;;;;;17.60;5.63;;;18.10;99.90;;;;;;5072886;28;20037;-57
2023/07/12 05:41:34;;;;;;;17.17;5.75;;;18.20;99.90;;;;;;5072596;28;20072;-58
2023/07/12 05:43:59;;;;;;;17.42;5.57;;;18.20;99.90;;;;;;5072231;28;20051;-57
2023/07/12 05:46:27;;;;;;;14.40;5.93;;;18.20;99.90;;;;;;5072338;28;20105;-57
2023/07/12 05:48:53;;;;;;;20.83;5.47;;;18.30;99.90;;;;;;5072227;28;20055;-57
2023/07/12 05:51:19;;;;;;;13.60;4.90;;;18.30;99.90;;;;;;5072294;28;20041;-57
2023/07/12 05:53:44;;;;;;;13.70;5.35;;;18.30;99.90;;;;;;5072589;28;20085;-57
2023/07/12 05:56:10;;;;;;;18.50;6.63;;;18.30;99.90;;;;;;5072639;28;20041;-57
2023/07/12 05:58:35;;;;;;;18.48;5.20;;;18.30;99.90;;;;;;5072439;28;20102;-58
2023/07/12 06:01:02;;;;;;;15.80;6.13;;;18.10;99.90;;;;;;5072343;28;20471;-57
2023/07/12 06:03:30;;;;;;;17.15;5.80;;;18.10;99.90;;;;;;5072081;28;20537;-57
2023/07/12 06:05:56;;;;;;;14.15;5.47;;;18.10;99.90;;;;;;5072475;28;20036;-57
2023/07/12 06:08:26;;;;;;;13.65;5.43;;;18.10;99.90;;;;;;5072027;28;20551;-57
2023/07/12 06:10:52;;;;;;;24.65;5.80;;;18.20;99.90;;;;;;5072352;28;20032;-57
2023/07/12 06:13:18;;;;;;;16.50;4.57;;;18.20;99.90;;;;;;5072235;28;20115;-57
2023/07/12 06:15:44;;;;;;;11.85;4.97;;;18.20;99.90;;;;;;5071978;28;20107;-57
2023/07/12 06:18:10;;;;;;;15.27;5.53;;;18.30;99.90;;;;;;5057919;28;20037;-57
2023/07/12 06:20:36;;;;;;;18.80;5.40;;;18.40;99.90;;;;;;5067831;28;20038;-57
2023/07/12 06:23:02;;;;;;;15.20;5.25;;;18.40;99.90;;;;;;5056767;28;20048;-58
2023/07/12 06:25:28;;;;;;;17.73;5.53;;;18.30;99.90;;;;;;5068180;28;20553;-57
2023/07/12 06:27:54;;;;;;;16.98;5.43;;;18.60;99.90;;;;;;5065846;28;20044;-57
2023/07/12 06:30:21;;;;;;;11.38;5.60;;;18.60;99.90;;;;;;5058113;28;20036;-57
2023/07/12 06:32:46;;;;;;;12.35;5.70;;;18.80;99.90;;;;;;5051944;28;20067;-57
2023/07/12 06:35:12;;;;;;;14.07;5.70;;;18.80;99.90;;;;;;5051541;28;20126;-57
2023/07/12 06:37:38;;;;;;;13.32;5.72;;;19.00;99.90;;;;;;5065964;28;20049;-56
2023/07/12 06:40:05;;;;;;;14.80;5.28;;;19.00;99.90;;;;;;5071852;28;20135;-56
2023/07/12 06:42:31;;;;;;;24.17;6.05;;;19.10;99.90;;;;;;5071560;28;20047;-57
2023/07/12 06:44:57;;;;;;;15.85;5.80;;;19.30;99.90;;;;;;5071622;28;20371;-57
2023/07/12 06:47:23;;;;;;;22.20;7.10;;;19.30;99.90;;;;;;5070631;28;20136;-57
2023/07/12 06:49:48;;;;;;;15.45;6.03;;;19.20;99.90;;;;;;5055708;28;20049;-57
2023/07/12 06:52:14;;;;;;;18.50;6.22;;;19.20;99.90;;;;;;5070314;28;20036;-57
2023/07/12 06:54:39;;;;;;;21.65;6.05;;;19.20;99.90;;;;;;5066589;28;20040;-57
2023/07/12 06:57:05;;;;;;;15.38;5.15;;;19.30;99.90;;;;;;5056013;28;20033;-56
2023/07/12 06:59:31;;;;;;;14.93;5.60;;;19.40;99.90;;;;;;5055371;28;20102;-57
2023/07/12 07:01:57;;;;;;;16.25;5.45;;;19.30;99.90;;;;;;5055451;28;20084;-57
2023/07/12 07:04:22;;;;;;;22.27;5.57;;;19.40;99.90;;;;;;5055750;28;20033;-57
2023/07/12 07:06:48;;;;;;;14.07;4.80;;;19.50;99.90;;;;;;5055697;28;20028;-57
2023/07/12 07:09:14;;;;;;;11.60;4.40;;;19.60;99.90;;;;;;5056272;28;20474;-57
2023/07/12 07:11:41;;;;;;;17.05;4.88;;;19.80;99.90;;;;;;5059348;28;20037;-57
2023/07/12 07:14:06;;;;;;;13.02;4.15;;;19.90;99.90;;;;;;5059120;28;20471;-56
2023/07/12 07:16:32;;;;;;;17.45;5.45;;;20.10;99.90;;;;;;5060743;28;20033;-57
2023/07/12 07:18:58;;;;;;;19.75;5.38;;;20.10;99.90;;;;;;5069650;28;20056;-56
2023/07/12 07:21:24;;;;;;;16.27;4.38;;;20.10;99.90;;;;;;5075187;28;20391;-56
2023/07/12 07:23:49;;;;;;;18.20;4.88;;;20.00;99.90;;;;;;5075307;28;20033;-57
2023/07/12 07:26:15;;;;;;;14.80;4.47;;;20.00;99.90;;;;;;5075508;28;20417;-57
2023/07/12 07:28:42;;;;;;;13.23;4.35;;;20.00;99.90;;;;;;5075399;28;20032;-56
2023/07/12 07:31:08;;;;;;;14.77;5.15;;;20.10;99.90;;;;;;5075175;28;20115;-56
2023/07/12 07:33:36;;;;;;;16.63;4.70;;;20.30;99.90;;;;;;5074259;28;20040;-56
2023/07/12 07:36:05;;;;;;;12.27;3.88;;;20.70;99.90;;;;;;5074919;28;20384;-56
2023/07/12 07:38:31;;;;;;;16.67;3.88;;;20.90;99.90;;;;;;5075374;28;20067;-57
2023/07/12 07:40:56;;;;;;;12.45;3.92;;;20.90;99.90;;;;;;5074650;28;20483;-56
2023/07/12 07:43:22;;;;;;;22.48;4.28;;;21.10;99.90;;;;;;5074943;28;20043;-57
2023/07/12 07:45:48;;;;;;;14.52;3.92;;;21.00;99.90;;;;;;5074912;28;20467;-57
2023/07/12 07:48:15;;;;;;;15.20;3.92;;;20.80;99.90;;;;;;5074733;28;20094;-56
2023/07/12 07:50:42;;;;;;;18.05;4.22;;;20.90;99.90;;;;;;5074853;28;20036;-57
2023/07/12 07:53:08;;;;;;;11.35;3.63;;;21.10;99.90;;;;;;5074901;28;20047;-56
2023/07/12 07:55:34;;;;;;;12.80;3.00;;;21.00;99.90;;;;;;5074890;28;20044;-56
2023/07/12 07:58:00;;;;;;;8.90;3.17;;;20.70;99.90;;;;;;5074463;28;20098;-56
2023/07/12 08:00:26;;;;;;;8.75;2.72;;;20.60;99.90;;;;;;5074886;28;20044;-57
2023/07/12 08:02:53;;;;;;;11.85;2.72;;;20.40;99.90;;;;;;5074327;28;20042;-56
2023/07/12 08:05:19;;;;;;;7.85;2.35;;;20.30;99.90;;;;;;5074580;28;20051;-56
2023/07/12 08:07:47;;;;;;;12.25;3.58;;;20.20;99.90;;;;;;5073038;28;20044;-56
2023/07/12 08:10:15;;;;;;;10.48;2.55;;;20.10;99.90;;;;;;5074312;28;20044;-57
2023/07/12 08:12:41;;;;;;;12.77;3.75;;;20.20;99.90;;;;;;5073382;28;20443;-57
2023/07/12 08:15:08;;;;;;;13.80;4.28;;;20.20;99.90;;;;;;5074396;28;20120;-56
2023/07/12 08:17:33;;;;;;;10.50;2.90;;;20.20;99.90;;;;;;5072932;28;20044;-57
2023/07/12 08:19:59;;;;;;;15.70;3.70;;;19.90;99.90;;;;;;5079345;28;20036;-57
2023/07/12 08:22:25;;;;;;;8.40;3.40;;;19.90;99.90;;;;;;5074004;28;20032;-57
2023/07/12 08:24:51;;;;;;;12.32;3.17;;;19.70;99.90;;;;;;5074166;28;20085;-58
2023/07/12 08:27:16;;;;;;;9.43;2.83;;;19.50;99.90;;;;;;5074207;28;20067;-58
2023/07/12 08:29:45;;;;;;;5.93;2.10;;;19.20;99.90;;;;;;5074581;28;20045;-57
2023/07/12 08:32:11;;;;;;;;;;;19.10;99.90;;;;;;5074721;28;20124;-57
2023/07/12 08:34:37;;;;;;;7.22;2.25;;;19.00;99.90;;;;;;5074244;28;19999;-58
2023/07/12 08:37:04;;;;;;;5.15;2.20;;;18.90;99.90;;;;;;5073980;28;20044;-57
2023/07/12 08:39:29;;;;;;;5.28;2.08;;;18.90;99.90;;;;;;5072719;28;20032;-57
2023/07/12 08:41:56;;;;;;;10.52;2.70;;;18.90;99.90;;;;;;5073616;28;20044;-57
2023/07/12 08:44:23;;;;;;;9.25;2.63;;;19.00;99.90;;;;;;5073697;28;20029;-56
2023/07/12 08:46:50;;;;;;;10.60;3.95;;;19.00;99.90;;;;;;5073589;28;20035;-58
2023/07/12 08:49:17;;;;;;;13.60;4.50;;;19.10;99.90;;;;;;5073531;28;20052;-58
2023/07/12 08:51:44;;;;;;;10.52;3.60;;;19.00;99.90;;;;;;5073370;28;20079;-57
2023/07/12 08:54:23;;;;;;;13.77;3.58;;;19.00;99.90;;;;;;5073507;28;20044;-58
2023/07/12 08:56:50;;;;;;;9.38;3.85;;;19.00;99.90;;;;;;5073602;28;20037;-56
2023/07/12 08:59:17;;;;;;;12.70;3.97;;;19.10;99.90;;;;;;5073779;28;20111;-56
2023/07/12 09:01:49;;;;;;;13.85;3.83;;;19.10;99.90;;;;;;5073070;28;20475;-57
2023/07/12 09:04:23;;;;;;;8.63;3.40;;;19.40;99.90;;;;;;5073585;28;20115;-56
2023/07/12 09:06:52;;;;;;;11.07;3.75;;;19.60;99.90;;;;;;5073429;28;20700;-57
2023/07/12 09:09:18;;;;;;;10.82;3.75;;;19.50;99.90;;;;;;5072277;28;20037;-58
2023/07/12 09:11:44;;;;;;;11.52;2.90;;;19.60;99.90;;;;;;5064351;28;20056;-65
2023/07/12 09:14:19;;;;;;;9.52;3.10;;;20.10;99.90;;;;;;5063342;28;20098;-65
2023/07/12 09:16:48;;;;;;;15.77;3.80;;;21.30;99.90;;;;;;5059556;28;20039;-65
2023/07/12 09:19:16;;;;;;;11.95;2.97;;;22.20;99.90;;;;;;5067221;28;20083;-66
2023/07/12 09:21:46;;;;;;;;;;;23.20;99.90;;;;;;5060261;28;20048;-64
2023/07/12 09:24:18;;;;;;;10.32;3.20;;;23.00;99.90;;;;;;5073839;28;19994;-65
2023/07/12 09:26:44;;;;;;;12.88;3.17;;;23.30;99.90;;;;;;5074025;28;20383;-65
2023/07/12 09:29:21;;;;;;;8.27;2.40;;;22.90;99.90;;;;;;5073562;28;20037;-66
2023/07/12 09:31:48;;;;;;;10.73;2.90;;;22.40;99.90;;;;;;5074042;28;20040;-65
2023/07/12 09:34:16;;;;;;;8.07;2.92;;;22.20;99.90;;;;;;5073538;28;20098;-65
2023/07/12 09:36:42;;;;;;;9.55;2.70;;;22.00;99.90;;;;;;5073898;28;20374;-65
2023/07/12 09:39:12;;;;;;;7.72;2.10;;;21.70;99.90;;;;;;5073383;28;20123;-65
2023/07/12 09:41:50;;;;;;;7.18;2.28;;;21.60;99.90;;;;;;5072577;28;20094;-65
2023/07/12 09:44:16;;;;;;;9.30;2.47;;;21.60;99.90;;;;;;5073414;28;20538;-65
2023/07/12 09:47:06;;;;;;;6.57;2.28;;;22.50;99.90;;;;;;5073530;28;20041;-66
2023/07/12 09:49:47;;;;;;;8.60;2.40;;;24.60;99.90;;;;;;5058403;28;20044;-65
2023/07/12 09:52:22;;;;;;;5.85;2.60;;;24.80;99.90;;;;;;5073125;28;20047;-66
2023/07/12 09:55:03;;;;;;;5.60;1.90;;;24.90;99.90;;;;;;5073131;28;20433;-65
2023/07/12 09:57:55;;;;;;;7.30;2.40;;;25.20;99.90;;;;;;5073232;28;20060;-65
2023/07/12 10:00:26;;;;;;;5.50;1.88;;;25.10;99.90;;;;;;5071430;28;20127;-66
2023/07/12 10:03:10;;;;;;;5.28;1.90;;;25.30;99.90;;;;;;5072356;28;20037;-65
2023/07/12 10:05:37;;;;;;;4.57;1.67;;;25.50;99.90;;;;;;5073096;28;20047;-65
2023/07/12 10:08:03;;;;;;;3.53;1.60;;;25.70;99.90;;;;;;5073274;28;20037;-67
2023/07/12 10:10:45;;;;;;;4.90;2.08;;;25.30;99.90;;;;;;5072491;28;20085;-66
2023/07/12 10:13:22;;;;;;;8.93;2.10;;;24.90;99.90;;;;;;5072493;28;20116;-67
2023/07/12 10:15:49;;;;;;;4.68;1.95;;;24.40;99.90;;;;;;5072860;28;20127;-65
2023/07/12 10:18:22;;;;;;;8.27;1.67;;;24.50;99.90;;;;;;5070004;28;20106;-63
2023/07/12 10:20:49;;;;;;;6.85;2.22;;;24.70;99.90;;;;;;5072695;28;20044;-66
2023/07/12 10:23:17;;;;;;;6.05;1.48;;;25.20;99.90;;;;;;5072190;28;20040;-66
2023/07/12 10:25:48;;;;;;;2.60;1.38;;;24.40;99.90;;;;;;5072321;28;20058;-66
2023/07/12 10:28:42;;;;;;;5.22;1.45;;;24.00;99.90;;;;;;5072349;28;20501;-65
2023/07/12 10:31:36;;;;;;;6.82;1.70;;;24.20;99.90;;;;;;5072735;28;20406;-66
2023/07/12 10:34:32;;;;;;;5.68;1.60;;;25.10;99.90;;;;;;5072126;28;20043;-65
2023/07/12 10:37:10;;;;;;;5.40;1.42;;;24.70;99.90;;;;;;5072295;28;20123;-65
2023/07/12 10:39:36;;;;;;;4.53;1.83;;;24.30;99.90;;;;;;5072111;28;20596;-65
2023/07/12 10:42:21;;;;;;;6.20;1.75;;;23.90;99.90;;;;;;5072362;28;20151;-65
2023/07/12 10:44:52;;;;;;;4.82;1.40;;;24.40;99.90;;;;;;5072096;28;20074;-65
2023/07/12 10:47:20;;;;;;;5.07;1.75;;;24.30;99.90;;;;;;5072088;28;20067;-64
2023/07/12 10:49:59;;;;;;;4.82;1.85;;;24.10;99.90;;;;;;5072596;28;20040;-66
2023/07/12 10:52:28;;;;;;;5.97;1.30;;;24.50;99.90;;;;;;5072053;28;20044;-66
2023/07/12 10:55:17;;;;;;;5.47;1.58;;;24.30;99.90;;;;;;5072492;28;20040;-64
2023/07/12 10:57:51;;;;;;;5.65;1.00;;;24.40;99.90;;;;;;5072103;28;20075;-64
2023/07/12 11:00:16;;;;;;;4.72;1.48;;;25.00;99.90;;;;;;5070467;28;20473;-64
2023/07/12 11:02:56;;;;;;;6.10;1.40;;;25.70;99.90;;;;;;5071669;28;20123;-65
2023/07/12 11:05:59;;;;;;;3.78;1.45;;;25.80;99.90;;;;;;5072127;28;20073;-64
2023/07/12 11:08:31;;;;;;;4.20;1.38;;;26.50;99.90;;;;;;5061730;28;20036;-65
2023/07/12 11:11:02;;;;;;;3.50;1.50;;;26.20;99.90;;;;;;5071642;28;20049;-65
2023/07/12 11:13:35;;;;;;;6.38;1.30;;;26.20;99.90;;;;;;5070394;28;20586;-66
2023/07/12 11:16:10;;;;;;;3.60;1.40;;;26.40;99.90;;;;;;5070459;28;20554;-66
2023/07/12 11:18:37;;;;;;;3.83;1.00;;;26.40;99.90;;;;;;5060577;28;20040;-65
2023/07/12 11:21:24;;;;;;;4.63;1.05;;;26.40;99.90;;;;;;5071415;28;20474;-66
2023/07/12 11:23:50;;;;;;;4.80;1.08;;;26.20;99.90;;;;;;5070190;28;20047;-66
2023/07/12 11:26:24;;;;;;;5.30;1.05;;;26.30;99.90;;;;;;5071069;28;20028;-66
2023/07/12 11:28:50;;;;;;;4.60;0.80;;;26.10;99.90;;;;;;5063553;28;20043;-64
2023/07/12 11:31:26;;;;;;;3.97;1.10;;;26.20;99.90;;;;;;5056936;28;20387;-64
2023/07/12 11:33:54;;;;;;;5.03;0.90;;;26.30;99.90;;;;;;5071373;28;20040;-67
2023/07/12 11:36:23;;;;;;;4.10;0.88;;;26.40;99.90;;;;;;5071225;28;20462;-66
2023/07/12 11:38:50;;;;;;;6.78;1.38;;;26.50;99.90;;;;;;5071563;28;20041;-67
2023/07/12 11:41:21;;;;;;;3.47;0.90;;;26.50;99.90;;;;;;5072222;28;20040;-65
2023/07/12 11:43:46;;;;;;;5.65;1.10;;;26.30;99.90;;;;;;5075114;28;20419;-67
2023/07/12 11:46:18;;;;;;;3.67;0.80;;;26.50;99.90;;;;;;5073755;28;20119;-66
2023/07/12 11:49:02;;;;;;;3.22;0.93;;;26.60;99.90;;;;;;5074695;28;20079;-66
2023/07/12 11:51:34;;;;;;;1.70;0.47;;;26.40;99.90;;;;;;5074653;28;20043;-65
2023/07/12 11:54:00;;;;;;;3.28;0.82;;;26.20;99.90;;;;;;5074965;28;20044;-65
2023/07/12 11:56:26;;;;;;;4.13;0.80;;;26.00;99.90;;;;;;5074426;28;20036;-64
2023/07/12 11:58:52;;;;;;;2.97;0.82;;;26.00;99.90;;;;;;5074799;28;20028;-67
2023/07/12 12:01:21;;;;;;;5.57;0.73;;;25.90;99.90;;;;;;5074765;28;20047;-66
2023/07/12 12:03:52;;;;;;;4.53;1.00;;;25.90;99.90;;;;;;5074877;28;20036;-65
2023/07/12 12:06:20;;;;;;;5.78;0.95;;;25.80;99.90;;;;;;5074959;28;20037;-64
2023/07/12 12:08:54;;;;;;;3.90;0.85;;;25.50;99.90;;;;;;5074563;28;20479;-66
2023/07/12 12:11:21;;;;;;;8.38;1.30;;;25.80;99.90;;;;;;5074578;28;20051;-63
2023/07/12 12:13:52;;;;;;;2.42;0.77;;;25.80;99.90;;;;;;5069333;28;20040;-64
2023/07/12 12:16:27;;;;;;;5.18;1.30;;;25.70;99.90;;;;;;5069135;28;20366;-64
2023/07/12 12:19:17;;;;;;;2.60;0.85;;;25.80;99.90;;;;;;5063465;28;20483;-67
2023/07/12 12:21:51;;;;;;;2.42;0.90;;;25.80;99.90;;;;;;5054437;28;20033;-65
2023/07/12 12:24:21;;;;;;;3.75;0.80;;;25.80;99.90;;;;;;5054419;28;20046;-65
2023/07/12 12:26:50;;;;;;;3.88;1.00;;;25.80;99.90;;;;;;5054230;28;20542;-65
2023/07/12 12:29:23;;;;;;;4.20;0.90;;;25.80;99.90;;;;;;5054303;28;20087;-66
2023/07/12 12:31:54;;;;;;;7.70;1.05;;;25.80;99.90;;;;;;5056808;28;20072;-65
2023/07/12 12:34:24;;;;;;;2.85;0.90;;;25.80;99.90;;;;;;5063215;28;20042;-65
2023/07/12 12:36:59;;;;;;;4.45;0.90;;;25.60;99.90;;;;;;5053897;28;20037;-65
2023/07/12 12:39:25;;;;;;;1.48;0.77;;;25.40;99.90;;;;;;5062494;28;20385;-66
2023/07/12 12:41:58;;;;;;;2.42;0.68;;;25.50;99.90;;;;;;5064518;28;20033;-66
2023/07/12 12:44:28;;;;;;;2.00;0.50;;;25.60;99.90;;;;;;5053087;28;20039;-65
2023/07/12 12:46:56;;;;;;;1.98;0.75;;;25.70;99.90;;;;;;5062146;28;20058;-66
2023/07/12 12:49:25;;;;;;;3.40;0.70;;;25.80;99.90;;;;;;5073380;28;20057;-65